Time;durP1;ratioP1;P1;durP2;ratioP2;P2;SDS_P1;SDS_P2;PMS_P1;PMS_P2;Temp;Humidity;BMP_temperature;BMP_pressure;BME280_temperature;BME280_humidity;BME280_pressure;Samples;Min_cycle;Max_cycle;Signal;HPM_P1;HPM_P2
2024/03/16 00:00:07;;;;;;;3.03;1.80;;;;;;;;;;4879741;29;20239;-56
2024/03/16 00:02:37;;;;;;;8.33;2.00;;;;;;;;;;4874899;29;20546;-53
2024/03/16 00:05:03;;;;;;;2.07;1.87;;;;;;;;;;4875627;29;20183;-54
2024/03/16 00:07:29;;;;;;;3.20;1.97;;;;;;;;;;4875362;29;20187;-54
2024/03/16 00:09:55;;;;;;;2.57;1.50;;;;;;;;;;4877172;29;20191;-54
2024/03/16 00:12:24;;;;;;;1.87;1.67;;;;;;;;;;4877170;29;20182;-53
2024/03/16 00:14:50;;;;;;;2.07;1.80;;;;;;;;;;4874006;29;20595;-53
2024/03/16 00:17:17;;;;;;;2.47;1.57;;;;;;;;;;4877660;29;20195;-53
2024/03/16 00:19:45;;;;;;;3.00;1.90;;;;;;;;;;4876987;29;20273;-54
2024/03/16 00:22:11;;;;;;;2.87;1.40;;;;;;;;;;4876769;29;20253;-54
2024/03/16 00:24:37;;;;;;;1.70;1.57;;;;;;;;;;4872450;29;20214;-54
2024/03/16 00:27:03;;;;;;;2.63;1.73;;;;;;;;;;4874759;29;20230;-53
2024/03/16 00:29:30;;;;;;;1.40;1.30;;;;;;;;;;4873480;29;20624;-54
2024/03/16 00:31:56;;;;;;;3.67;1.70;;;;;;;;;;4875601;29;20632;-54
2024/03/16 00:34:23;;;;;;;2.00;1.40;;;;;;;;;;4873912;29;20191;-55
2024/03/16 00:36:49;;;;;;;1.97;1.70;;;;;;;;;;4874911;29;20298;-54
2024/03/16 00:39:15;;;;;;;2.40;1.47;;;;;;;;;;4875744;29;20759;-56
2024/03/16 00:41:42;;;;;;;2.20;1.63;;;;;;;;;;4880852;29;20266;-53
2024/03/16 00:44:08;;;;;;;2.17;1.40;;;;;;;;;;4876801;29;20186;-55
2024/03/16 00:46:35;;;;;;;1.50;1.23;;;;;;;;;;4873605;29;20271;-54
2024/03/16 00:49:02;;;;;;;2.37;1.60;;;;;;;;;;4878037;29;20187;-53
2024/03/16 00:51:28;;;;;;;2.00;1.33;;;;;;;;;;4880155;29;20640;-53
2024/03/16 00:53:54;;;;;;;2.63;1.23;;;;;;;;;;4873038;29;20526;-53
2024/03/16 00:56:23;;;;;;;2.37;1.30;;;;;;;;;;4870374;29;20183;-53
2024/03/16 00:58:49;;;;;;;1.53;1.37;;;;;;;;;;4873747;29;20199;-54
2024/03/16 01:01:16;;;;;;;2.10;1.30;;;;;;;;;;4871013;29;20345;-54
2024/03/16 01:03:42;;;;;;;3.30;1.47;;;;;;;;;;4885138;29;20235;-54
2024/03/16 01:06:09;;;;;;;2.43;1.47;;;;;;;;;;4872976;29;20215;-54
2024/03/16 01:08:35;;;;;;;2.17;1.50;;;;;;;;;;4877108;29;20526;-57
2024/03/16 01:11:01;;;;;;;2.60;1.43;;;;;;;;;;4873540;29;20191;-57
2024/03/16 01:13:28;;;;;;;3.73;1.40;;;;;;;;;;4878105;29;20186;-56
2024/03/16 01:15:54;;;;;;;1.70;1.57;;;;;;;;;;4874873;29;20185;-56
2024/03/16 01:18:20;;;;;;;3.33;1.33;;;;;;;;;;4876642;29;20207;-53
2024/03/16 01:20:49;;;;;;;2.40;1.40;;;;;;;;;;4874230;29;20619;-53
2024/03/16 01:23:15;;;;;;;1.47;1.37;;;;;;;;;;4874845;29;20566;-52
2024/03/16 01:25:42;;;;;;;1.53;1.43;;;;;;;;;;4870440;29;20297;-53
2024/03/16 01:28:08;;;;;;;1.97;1.47;;;;;;;;;;4871624;29;20609;-53
2024/03/16 01:30:34;;;;;;;2.60;1.60;;;;;;;;;;4875078;29;20273;-51
2024/03/16 01:33:00;;;;;;;2.93;1.70;;;;;;;;;;4869902;29;20256;-53
2024/03/16 01:35:26;;;;;;;2.27;1.23;;;;;;;;;;4871419;29;20663;-53
2024/03/16 01:37:53;;;;;;;1.30;1.20;;;;;;;;;;4876575;29;20215;-53
2024/03/16 01:40:24;;;;;;;2.63;1.63;;;;;;;;;;4870009;29;20601;-52
2024/03/16 01:42:50;;;;;;;3.63;1.83;;;;;;;;;;4876924;29;20482;-51
2024/03/16 01:45:17;;;;;;;2.10;1.90;;;;;;;;;;4872233;29;20675;-52
2024/03/16 01:47:43;;;;;;;2.30;1.60;;;;;;;;;;4878605;29;20192;-54
2024/03/16 01:50:09;;;;;;;;;;;;;;;;;;4880084;29;20188;-51
2024/03/16 01:52:35;;;;;;;;;;;;;;;;;;4880393;29;19951;-51
2024/03/16 01:55:01;;;;;;;;;;;;;;;;;;4875845;29;20428;-51
2024/03/16 01:57:27;;;;;;;;;;;;;;;;;;4882764;29;19923;-51
2024/03/16 01:59:53;;;;;;;;;;;;;;;;;;4876641;29;19958;-51
2024/03/16 02:02:19;;;;;;;;;;;;;;;;;;4878431;29;20328;-52
2024/03/16 02:04:46;;;;;;;;;;;;;;;;;;4877089;29;20333;-51
2024/03/16 02:07:12;;;;;;;;;;;;;;;;;;4876491;29;19923;-51
2024/03/16 02:09:39;;;;;;;;;;;;;;;;;;4879477;29;19916;-52
2024/03/16 02:12:04;;;;;;;;;;;;;;;;;;4875643;29;20232;-53
2024/03/16 02:14:30;;;;;;;;;;;;;;;;;;4876276;29;19920;-52
2024/03/16 02:16:56;;;;;;;;;;;;;;;;;;4875237;29;19982;-52
2024/03/16 02:19:22;;;;;;;;;;;;;;;;;;4875600;29;19915;-56
2024/03/16 02:21:48;;;;;;;;;;;;;;;;;;4876575;29;19955;-57
2024/03/16 02:24:14;;;;;;;;;;;;;;;;;;4876162;29;19987;-57
2024/03/16 02:26:41;;;;;;;;;;;;;;;;;;4874051;29;20091;-57
2024/03/16 02:29:07;;;;;;;;;;;;;;;;;;4875411;29;19916;-53
2024/03/16 02:31:33;;;;;;;;;;;;;;;;;;4879690;29;19951;-52
2024/03/16 02:33:59;;;;;;;;;;;;;;;;;;4876961;29;19962;-52
2024/03/16 02:36:25;;;;;;;;;;;;;;;;;;4875987;29;19955;-51
2024/03/16 02:38:51;;;;;;;;;;;;;;;;;;4877714;29;19960;-52
2024/03/16 02:41:17;;;;;;;;;;;;;;;;;;4873686;29;19984;-51
2024/03/16 02:43:44;;;;;;;;;;;;;;;;;;4878847;29;20532;-51
2024/03/16 02:46:10;;;;;;;;;;;;;;;;;;4876649;29;19919;-52
2024/03/16 02:48:36;;;;;;;;;;;;;;;;;;4875995;29;19951;-52
2024/03/16 02:51:02;;;;;;;;;;;;;;;;;;4876257;29;20019;-55
2024/03/16 02:53:28;;;;;;;;;;;;;;;;;;4879651;29;19943;-54
2024/03/16 02:55:54;;;;;;;;;;;;;;;;;;4880507;29;19954;-52
2024/03/16 02:58:20;;;;;;;;;;;;;;;;;;4877831;29;19979;-53
2024/03/16 03:00:47;;;;;;;;;;;;;;;;;;4873812;29;19955;-51
2024/03/16 03:03:13;;;;;;;;;;;;;;;;;;4879058;29;19944;-52
2024/03/16 03:05:39;;;;;;;;;;;;;;;;;;4875589;29;19962;-51
2024/03/16 03:08:05;;;;;;;;;;;;;;;;;;4875706;29;19947;-52
2024/03/16 03:10:32;;;;;;;;;;;;;;;;;;4880818;29;20621;-50
2024/03/16 03:12:58;;;;;;;;;;;;;;;;;;4879768;29;20411;-52
2024/03/16 03:15:24;;;;;;;;;;;;;;;;;;4873980;29;19920;-51
2024/03/16 03:17:50;;;;;;;;;;;;;;;;;;4878912;29;19962;-52
2024/03/16 03:20:16;;;;;;;;;;;;;;;;;;4877495;29;19967;-50
2024/03/16 03:22:42;;;;;;;;;;;;;;;;;;4874072;29;20401;-51
2024/03/16 03:25:09;;;;;;;;;;;;;;;;;;4879389;29;20041;-53
2024/03/16 03:27:35;;;;;;;;;;;;;;;;;;4878844;29;20045;-51
2024/03/16 03:30:01;;;;;;;;;;;;;;;;;;4875851;29;20391;-53
2024/03/16 03:32:28;;;;;;;;;;;;;;;;;;4877540;29;19989;-53
2024/03/16 03:34:53;;;;;;;;;;;;;;;;;;4872965;29;19923;-53
2024/03/16 03:37:20;;;;;;;;;;;;;;;;;;4875426;29;19963;-54
2024/03/16 03:39:48;;;;;;;;;;;;;;;;;;4874388;29;19919;-53
2024/03/16 03:42:14;;;;;;;;;;;;;;;;;;4876721;29;20169;-53
2024/03/16 03:45:00;;;;;;;;;;;;;;;;;;4873981;29;20299;-54
2024/03/16 03:47:40;;;;;;;;;;;;;;;;;;4875029;29;19920;-53
2024/03/16 03:50:06;;;;;;;;;;;;;;;;;;4873768;29;20388;-54
2024/03/16 03:52:32;;;;;;;;;;;;;;;;;;4874815;29;19959;-54
2024/03/16 03:54:58;;;;;;;;;;;;;;;;;;4873373;29;20356;-54
2024/03/16 03:57:24;;;;;;;;;;;;;;;;;;4874142;29;19963;-54
2024/03/16 03:59:50;;;;;;;;;;;;;;;;;;4876067;29;19950;-54
2024/03/16 04:02:15;;;;;;;;;;;;;;;;;;4875273;29;19946;-55
2024/03/16 04:04:42;;;;;;;;;;;;;;;;;;4872759;29;19973;-53
2024/03/16 04:07:08;;;;;;;;;;;;;;;;;;4875528;29;20272;-54
2024/03/16 04:09:34;;;;;;;;;;;;;;;;;;4872939;29;19927;-54
2024/03/16 04:12:00;;;;;;;;;;;;;;;;;;4877076;29;19947;-54
2024/03/16 04:14:26;;;;;;;;;;;;;;;;;;4875176;29;19984;-54
2024/03/16 04:16:52;;;;;;;;;;;;;;;;;;4878265;29;20424;-55
2024/03/16 04:19:18;;;;;;;;;;;;;;;;;;4875354;29;19923;-54
2024/03/16 04:21:44;;;;;;;;;;;;;;;;;;4875717;29;20388;-54
2024/03/16 04:24:10;;;;;;;;;;;;;;;;;;4877428;29;19983;-53
2024/03/16 04:26:36;;;;;;;;;;;;;;;;;;4873251;29;20367;-54
2024/03/16 04:29:02;;;;;;;;;;;;;;;;;;4874661;29;19951;-54
2024/03/16 04:31:28;;;;;;;;;;;;;;;;;;4872702;29;19920;-56
2024/03/16 04:33:54;;;;;;;;;;;;;;;;;;4873995;29;19962;-53
2024/03/16 04:36:20;;;;;;;;;;;;;;;;;;4872403;29;20032;-53
2024/03/16 04:38:46;;;;;;;;;;;;;;;;;;4875324;29;19966;-59
2024/03/16 04:41:13;;;;;;;;;;;;;;;;;;4873073;29;20320;-59
2024/03/16 04:43:41;;;;;;;;;;;;;;;;;;4873496;29;19912;-59
2024/03/16 04:46:07;;;;;;;;;;;;;;;;;;4874626;29;19951;-60
2024/03/16 04:48:33;;;;;;;;;;;;;;;;;;4880467;29;19936;-58
2024/03/16 04:50:59;;;;;;;;;;;;;;;;;;4878172;29;19915;-59
2024/03/16 04:53:26;;;;;;;;;;;;;;;;;;4876657;29;19915;-59
2024/03/16 04:55:55;;;;;;;;;;;;;;;;;;4872819;29;19912;-58
2024/03/16 04:58:22;;;;;;;;;;;;;;;;;;4873865;29;20010;-57
2024/03/16 05:00:48;;;;;;;;;;;;;;;;;;4870154;29;19920;-60
2024/03/16 05:03:14;;;;;;;;;;;;;;;;;;4874693;29;20407;-60
2024/03/16 05:05:40;;;;;;;;;;;;;;;;;;4872652;29;19939;-59
2024/03/16 05:08:07;;;;;;;;;;;;;;;;;;4878251;29;20018;-59
2024/03/16 05:10:33;;;;;;;;;;;;;;;;;;4874516;29;19912;-60
2024/03/16 05:12:59;;;;;;;;;;;;;;;;;;4874430;29;19979;-58
2024/03/16 05:15:25;;;;;;;;;;;;;;;;;;4872342;29;19939;-60
2024/03/16 05:17:51;;;;;;;;;;;;;;;;;;4873185;29;20344;-59
2024/03/16 05:20:17;;;;;;;;;;;;;;;;;;4874103;29;19954;-59
2024/03/16 05:22:42;;;;;;;;;;;;;;;;;;4874738;29;20014;-58
2024/03/16 05:25:08;;;;;;;;;;;;;;;;;;4874780;29;19963;-56
2024/03/16 05:27:35;;;;;;;;;;;;;;;;;;4868946;29;20341;-59
2024/03/16 05:30:01;;;;;;;;;;;;;;;;;;4858780;29;19943;-60
2024/03/16 05:32:27;;;;;;;;;;;;;;;;;;4859027;29;20337;-59
2024/03/16 05:34:53;;;;;;;;;;;;;;;;;;4858719;29;19935;-60
2024/03/16 05:37:19;;;;;;;;;;;;;;;;;;4859170;29;20018;-59
2024/03/16 05:39:45;;;;;;;;;;;;;;;;;;4858015;29;19935;-57
2024/03/16 05:42:11;;;;;;;;;;;;;;;;;;4857394;29;20383;-58
2024/03/16 05:44:37;;;;;;;;;;;;;;;;;;4859392;29;20416;-58
2024/03/16 05:47:03;;;;;;;;;;;;;;;;;;4857819;29;19976;-56
2024/03/16 05:49:29;;;;;;;;;;;;;;;;;;4856918;29;19945;-59
2024/03/16 05:51:55;;;;;;;;;;;;;;;;;;4859779;29;19939;-59
2024/03/16 05:54:20;;;;;;;;;;;;;;;;;;4858853;29;19975;-56
2024/03/16 05:56:47;;;;;;;;;;;;;;;;;;4858810;29;20421;-59
2024/03/16 05:59:14;;;;;;;;;;;;;;;;;;4858792;29;20364;-52
2024/03/16 06:01:41;;;;;;;;;;;;;;;;;;4857955;29;19954;-52
2024/03/16 06:04:07;;;;;;;;;;;;;;;;;;4859538;29;19935;-53
2024/03/16 06:06:33;;;;;;;;;;;;;;;;;;4858024;29;19934;-52
2024/03/16 06:08:59;;;;;;;;;;;;;;;;;;4858316;29;19959;-54
2024/03/16 06:11:26;;;;;;;;;;;;;;;;;;4857247;29;19912;-53
2024/03/16 06:13:52;;;;;;;;;;;;;;;;;;4858620;29;20609;-54
2024/03/16 06:16:21;;;;;;;;;;;;;;;;;;4857760;29;19939;-53
2024/03/16 06:18:47;;;;;;;;;;;;;;;;;;4855390;29;20035;-52
2024/03/16 06:21:14;;;;;;;;;;;;;;;;;;4856237;29;19920;-53
2024/03/16 06:23:40;;;;;;;;;;;;;;;;;;4858086;29;19922;-53
2024/03/16 06:26:06;;;;;;;;;;;;;;;;;;4857632;29;20379;-53
2024/03/16 06:28:36;;;;;;;;;;;;;;;;;;4857495;29;19912;-53
2024/03/16 06:31:08;;;;;;;;;;;;;;;;;;4865443;29;19954;-53
2024/03/16 06:33:34;;;;;;;;;;;;;;;;;;4858097;29;20260;-54
2024/03/16 06:36:00;;;;;;;;;;;;;;;;;;4860794;29;19985;-54
2024/03/16 06:38:26;;;;;;;;;;;;;;;;;;4856115;29;19923;-52
2024/03/16 06:40:52;;;;;;;;;;;;;;;;;;4860638;29;19916;-55
2024/03/16 06:43:18;;;;;;;;;;;;;;;;;;4865858;29;19916;-55
2024/03/16 06:45:44;;;;;;;;;;;;;;;;;;4858294;29;19990;-54
2024/03/16 06:48:10;;;;;;;;;;;;;;;;;;4856749;29;19928;-54
2024/03/16 06:50:36;;;;;;;;;;;;;;;;;;4857731;29;19920;-55
2024/03/16 06:53:02;;;;;;;;;;;;;;;;;;4859662;29;19961;-54
2024/03/16 06:55:28;;;;;;;;;;;;;;;;;;4855855;29;20384;-55
2024/03/16 06:57:54;;;;;;;;;;;;;;;;;;4855147;29;19948;-54
2024/03/16 07:00:21;;;;;;;;;;;;;;;;;;4855875;29;19972;-53
2024/03/16 07:02:47;;;;;;;;;;;;;;;;;;4856086;29;20289;-51
2024/03/16 07:05:13;;;;;;;;;;;;;;;;;;4856130;29;19955;-51
2024/03/16 07:07:39;;;;;;;;;;;;;;;;;;4852799;29;20011;-52
2024/03/16 07:10:06;;;;;;;;;;;;;;;;;;4856183;29;19908;-57
2024/03/16 07:12:32;;;;;;;;;;;;;;;;;;4858410;29;19916;-52
2024/03/16 07:14:58;;;;;;;;;;;;;;;;;;4857452;29;19912;-52
2024/03/16 07:17:26;;;;;;;;;;;;;;;;;;4854834;29;20027;-53
2024/03/16 07:19:52;;;;;;;;;;;;;;;;;;4852608;29;20278;-53
2024/03/16 07:22:18;;;;;;;;;;;;;;;;;;4856328;29;19966;-53
2024/03/16 07:24:44;;;;;;;;;;;;;;;;;;4853508;29;19966;-53
2024/03/16 07:27:11;;;;;;;;;;;;;;;;;;4853560;29;20023;-54
2024/03/16 07:29:37;;;;;;;;;;;;;;;;;;4854473;29;19995;-54
2024/03/16 07:32:02;;;;;;;;;;;;;;;;;;4855111;29;20068;-53
2024/03/16 07:34:28;;;;;;;;;;;;;;;;;;4855228;29;19924;-54
2024/03/16 07:36:57;;;;;;;;;;;;;;;;;;4854233;29;20018;-53
2024/03/16 07:39:23;;;;;;;;;;;;;;;;;;4856210;29;19912;-54
2024/03/16 07:41:49;;;;;;;;;;;;;;;;;;4854756;29;19927;-55
2024/03/16 07:44:14;;;;;;;;;;;;;;;;;;4853340;29;19966;-53
2024/03/16 07:46:41;;;;;;;;;;;;;;;;;;4854341;29;20023;-52
2024/03/16 07:49:06;;;;;;;;;;;;;;;;;;4856887;29;19916;-51
2024/03/16 07:51:32;;;;;;;;;;;;;;;;;;4856647;29;20081;-50
2024/03/16 07:54:00;;;;;;;;;;;;;;;;;;4855411;29;19935;-50
2024/03/16 07:56:26;;;;;;;;;;;;;;;;;;4855153;29;20260;-52
2024/03/16 07:58:52;;;;;;;;;;;;;;;;;;4863808;29;19950;-51
2024/03/16 08:01:19;;;;;;;;;;;;;;;;;;4855860;29;19913;-52
2024/03/16 08:03:45;;;;;;;;;;;;;;;;;;4857582;29;20423;-51
2024/03/16 08:06:11;;;;;;;;;;;;;;;;;;4855387;29;20002;-54
2024/03/16 08:08:37;;;;;;;;;;;;;;;;;;4855026;29;19948;-59
2024/03/16 08:11:04;;;;;;;;;;;;;;;;;;4859739;29;20019;-59
2024/03/16 08:13:34;;;;;;;;;;;;;;;;;;4854611;29;19912;-59
2024/03/16 08:16:00;;;;;;;;;;;;;;;;;;4857026;29;20441;-59
2024/03/16 08:18:26;;;;;;;;;;;;;;;;;;4855491;29;20007;-57
2024/03/16 08:20:52;;;;;;;;;;;;;;;;;;4854306;29;19967;-59
2024/03/16 08:23:18;;;;;;;;;;;;;;;;;;4852370;29;19951;-59
2024/03/16 08:25:46;;;;;;;;;;;;;;;;;;4851578;29;20333;-56
2024/03/16 08:28:12;;;;;;;;;;;;;;;;;;4874825;29;20352;-57
2024/03/16 08:30:38;;;;;;;;;;;;;;;;;;4871697;29;19963;-55
2024/03/16 08:33:04;;;;;;;;;;;;;;;;;;4871766;29;19969;-55
2024/03/16 08:35:32;;;;;;;;;;;;;;;;;;4882722;29;19954;-54
2024/03/16 08:37:58;;;;;;;;;;;;;;;;;;4885076;29;19919;-55
2024/03/16 08:40:24;;;;;;;;;;;;;;;;;;4878323;29;19922;-53
2024/03/16 08:42:51;;;;;;;;;;;;;;;;;;4878291;29;19944;-55
2024/03/16 08:45:17;;;;;;;;;;;;;;;;;;4872320;29;19912;-55
2024/03/16 08:47:43;;;;;;;;;;;;;;;;;;4873436;29;19966;-54
2024/03/16 08:50:09;;;;;;;;;;;;;;;;;;4874153;29;20028;-53
2024/03/16 08:52:35;;;;;;;;;;;;;;;;;;4878770;29;20024;-55
2024/03/16 08:55:02;;;;;;;;;;;;;;;;;;4874791;29;19924;-55
2024/03/16 08:57:28;;;;;;;;;;;;;;;;;;4875933;29;19916;-54
2024/03/16 08:59:54;;;;;;;;;;;;;;;;;;4873330;29;20003;-54
2024/03/16 09:02:20;;;;;;;;;;;;;;;;;;4873155;29;20030;-56
2024/03/16 09:04:46;;;;;;;;;;;;;;;;;;4871422;29;19974;-54
2024/03/16 09:07:12;;;;;;;;;;;;;;;;;;4877020;29;20658;-55
2024/03/16 09:09:38;;;;;;;;;;;;;;;;;;4880251;29;19946;-54
2024/03/16 09:12:04;;;;;;;;;;;;;;;;;;4875592;29;19969;-54
2024/03/16 09:14:32;;;;;;;;;;;;;;;;;;4876078;29;19951;-54
2024/03/16 09:16:58;;;;;;;;;;;;;;;;;;4875445;29;19931;-54
2024/03/16 09:19:24;;;;;;;;;;;;;;;;;;4875573;29;19938;-58
2024/03/16 09:21:50;;;;;;;;;;;;;;;;;;4880447;29;20380;-56
2024/03/16 09:24:17;;;;;;;;;;;;;;;;;;4874301;29;19928;-58
2024/03/16 09:26:43;;;;;;;;;;;;;;;;;;4875496;29;19982;-57
2024/03/16 09:29:09;;;;;;;;;;;;;;;;;;4878925;29;20316;-58
2024/03/16 09:31:35;;;;;;;;;;;;;;;;;;4874159;29;20357;-58
2024/03/16 09:34:03;;;;;;;;;;;;;;;;;;4871924;29;19984;-57
2024/03/16 09:36:29;;;;;;;;;;;;;;;;;;4870994;29;19920;-59
2024/03/16 09:38:55;;;;;;;;;;;;;;;;;;4873581;29;19916;-52
2024/03/16 09:41:21;;;;;;;;;;;;;;;;;;4874758;29;20018;-54
2024/03/16 09:43:47;;;;;;;;;;;;;;;;;;4872090;29;20376;-53
2024/03/16 09:46:13;;;;;;;;;;;;;;;;;;4871859;29;19920;-55
2024/03/16 09:48:39;;;;;;;;;;;;;;;;;;4871435;29;19980;-54
2024/03/16 09:51:05;;;;;;;;;;;;;;;;;;4871236;29;20038;-54
2024/03/16 09:53:32;;;;;;;;;;;;;;;;;;4873478;29;19986;-54
2024/03/16 09:55:59;;;;;;;;;;;;;;;;;;4869423;29;20058;-53
2024/03/16 09:58:25;;;;;;;;;;;;;;;;;;4870940;29;19919;-56
2024/03/16 10:00:51;;;;;;;;;;;;;;;;;;4871807;29;19966;-53
2024/03/16 10:03:17;;;;;;;;;;;;;;;;;;4876674;29;19915;-54
2024/03/16 10:05:43;;;;;;;;;;;;;;;;;;4875808;29;20019;-54
2024/03/16 10:08:09;;;;;;;;;;;;;;;;;;4875350;29;19911;-53
2024/03/16 10:10:35;;;;;;;;;;;;;;;;;;4876800;29;19923;-54
2024/03/16 10:13:01;;;;;;;;;;;;;;;;;;4876767;29;20320;-55
2024/03/16 10:15:27;;;;;;;;;;;;;;;;;;4877380;29;19962;-54
2024/03/16 10:17:53;;;;;;;;;;;;;;;;;;4881689;29;19966;-53
2024/03/16 10:20:19;;;;;;;;;;;;;;;;;;4877535;29;19955;-53
2024/03/16 10:22:44;;;;;;;;;;;;;;;;;;4875800;29;20273;-53
2024/03/16 10:25:10;;;;;;;;;;;;;;;;;;4876669;29;20154;-53
2024/03/16 10:27:37;;;;;;;;;;;;;;;;;;4874827;29;19939;-54
2024/03/16 10:30:04;;;;;;;;;;;;;;;;;;4878329;29;19915;-57
2024/03/16 10:32:30;;;;;;;;;;;;;;;;;;4879409;29;19911;-57
2024/03/16 10:35:03;;;;;;;;;;;;;;;;;;4876805;29;19922;-57
2024/03/16 10:37:32;;;;;;;;;;;;;;;;;;4876439;29;20029;-57
2024/03/16 10:39:58;;;;;;;;;;;;;;;;;;4876130;29;19912;-58
2024/03/16 10:42:24;;;;;;;;;;;;;;;;;;4873963;29;20072;-57
2024/03/16 10:44:50;;;;;;;;;;;;;;;;;;4877975;29;19915;-58
2024/03/16 10:47:16;;;;;;;;;;;;;;;;;;4875543;29;20008;-57
2024/03/16 10:49:42;;;;;;;;;;;;;;;;;;4878844;29;20115;-57
2024/03/16 10:52:08;;;;;;;;;;;;;;;;;;4875404;29;19916;-58
2024/03/16 10:54:34;;;;;;;;;;;;;;;;;;4883199;29;19975;-57
2024/03/16 10:57:00;;;;;;;;;;;;;;;;;;4881553;29;19923;-57
2024/03/16 10:59:27;;;;;;;;;;;;;;;;;;4877576;29;20360;-53
2024/03/16 11:01:55;;;;;;;;;;;;;;;;;;4879045;29;19926;-54
2024/03/16 11:04:21;;;;;;;;;;;;;;;;;;4874666;29;19912;-52
2024/03/16 11:06:47;;;;;;;;;;;;;;;;;;4877006;29;20375;-53
2024/03/16 11:09:16;;;;;;;;;;;;;;;;;;4876168;29;19940;-52
2024/03/16 11:11:42;;;;;;;;;;;;;;;;;;4876157;29;20593;-52
2024/03/16 11:14:11;;;;;;;;;;;;;;;;;;4876038;29;19947;-50
2024/03/16 11:16:39;;;;;;;;;;;;;;;;;;4875839;29;19911;-53
2024/03/16 11:19:07;;;;;;;;;;;;;;;;;;4878460;29;19938;-57
2024/03/16 11:21:33;;;;;;;;;;;;;;;;;;4873978;29;20300;-52
2024/03/16 11:24:02;;;;;;;;;;;;;;;;;;4876181;29;19963;-52
2024/03/16 11:26:28;;;;;;;;;;;;;;;;;;4873031;29;19963;-53
2024/03/16 11:28:54;;;;;;;;;;;;;;;;;;4863117;29;20435;-52
2024/03/16 11:31:20;;;;;;;;;;;;;;;;;;4863029;29;19912;-51
2024/03/16 11:33:46;;;;;;;;;;;;;;;;;;4859809;29;19961;-52
2024/03/16 11:36:11;;;;;;;;;;;;;;;;;;4856141;29;19963;-51
2024/03/16 11:38:37;;;;;;;;;;;;;;;;;;4857482;29;20046;-54
2024/03/16 11:41:05;;;;;;;;;;;;;;;;;;4854678;29;19913;-54
2024/03/16 11:43:31;;;;;;;;;;;;;;;;;;4854826;29;19912;-55
2024/03/16 11:45:57;;;;;;;;;;;;;;;;;;4857177;29;19927;-53
2024/03/16 11:48:25;;;;;;;;;;;;;;;;;;4870083;29;20402;-54
2024/03/16 11:50:51;;;;;;;;;;;;;;;;;;4871191;29;20332;-53
2024/03/16 11:53:17;;;;;;;;;;;;;;;;;;4860314;29;19920;-53
2024/03/16 11:55:43;;;;;;;;;;;;;;;;;;4865054;29;19955;-54
2024/03/16 11:58:09;;;;;;;;;;;;;;;;;;4861658;29;20255;-54
2024/03/16 12:00:35;;;;;;;;;;;;;;;;;;4871194;29;19915;-54
2024/03/16 12:03:01;;;;;;;;;;;;;;;;;;4858932;29;20387;-55
2024/03/16 12:05:27;;;;;;;;;;;;;;;;;;4867479;29;19956;-53
2024/03/16 12:07:53;;;;;;;;;;;;;;;;;;4872785;29;19955;-54
2024/03/16 12:10:20;;;;;;;;;;;;;;;;;;4858434;29;19956;-53
2024/03/16 12:12:46;;;;;;;;;;;;;;;;;;4864086;29;20313;-53
2024/03/16 12:15:15;;;;;;;;;;;;;;;;;;4858072;29;19959;-53
2024/03/16 12:17:41;;;;;;;;;;;;;;;;;;4855412;29;19915;-52
2024/03/16 12:20:07;;;;;;;;;;;;;;;;;;4856159;29;19966;-51
2024/03/16 12:22:34;;;;;;;;;;;;;;;;;;4852482;29;20252;-54
2024/03/16 12:25:00;;;;;;;;;;;;;;;;;;4854112;29;20110;-52
2024/03/16 12:27:26;;;;;;;;;;;;;;;;;;4853862;29;20134;-52
2024/03/16 12:29:53;;;;;;;;;;;;;;;;;;4858444;29;19912;-58
2024/03/16 12:32:20;;;;;;;;;;;;;;;;;;4854988;29;19923;-58
2024/03/16 12:34:46;;;;;;;;;;;;;;;;;;4857379;29;20367;-57
2024/03/16 12:37:13;;;;;;;;;;;;;;;;;;4855818;29;19973;-59
2024/03/16 12:39:40;;;;;;;;;;;;;;;;;;4857047;29;19916;-57
2024/03/16 12:42:06;;;;;;;;;;;;;;;;;;4851248;29;19916;-55
2024/03/16 12:44:33;;;;;;;;;;;;;;;;;;4856668;29;19987;-58
2024/03/16 12:47:00;;;;;;;;;;;;;;;;;;4854603;29;19928;-58
2024/03/16 12:49:26;;;;;;;;;;;;;;;;;;4856411;29;19920;-56
2024/03/16 12:51:52;;;;;;;;;;;;;;;;;;4855358;29;20017;-56
2024/03/16 12:54:18;;;;;;;;;;;;;;;;;;4855938;29;19946;-56
2024/03/16 12:56:47;;;;;;;;;;;;;;;;;;4855635;29;19970;-56
2024/03/16 12:59:13;;;;;;;;;;;;;;;;;;4855743;29;20082;-56
2024/03/16 13:01:39;;;;;;;;;;;;;;;;;;4856195;29;19920;-56
2024/03/16 13:04:05;;;;;;;;;;;;;;;;;;4854999;29;21579;-59
2024/03/16 13:06:31;;;;;;;;;;;;;;;;;;4854468;29;19959;-57
2024/03/16 13:08:58;;;;;;;;;;;;;;;;;;4853146;29;19987;-57
2024/03/16 13:11:25;;;;;;;;;;;;;;;;;;4856537;29;19966;-56
2024/03/16 13:13:51;;;;;;;;;;;;;;;;;;4855696;29;19911;-58
2024/03/16 13:16:17;;;;;;;;;;;;;;;;;;4854249;29;20045;-57
2024/03/16 13:18:43;;;;;;;;;;;;;;;;;;4852040;29;20030;-57
2024/03/16 13:21:10;;;;;;;;;;;;;;;;;;4855173;29;20049;-57
2024/03/16 13:23:36;;;;;;;;;;;;;;;;;;4855784;29;19916;-57
2024/03/16 13:26:02;;;;;;;;;;;;;;;;;;4856112;29;20376;-57
2024/03/16 13:28:28;;;;;;;;;;;;;;;;;;4856326;29;19970;-58
2024/03/16 13:30:55;;;;;;;;;;;;;;;;;;4851866;29;19959;-57
2024/03/16 13:33:21;;;;;;;;;;;;;;;;;;4856612;29;19912;-57
2024/03/16 13:35:50;;;;;;;;;;;;;;;;;;4860536;29;19962;-57
2024/03/16 13:38:16;;;;;;;;;;;;;;;;;;4855648;29;19924;-53
2024/03/16 13:40:42;;;;;;;;;;;;;;;;;;4863031;29;19959;-53
2024/03/16 13:43:08;;;;;;;;;;;;;;;;;;4855299;29;19939;-53
2024/03/16 13:45:35;;;;;;;;;;;;;;;;;;4855338;29;19955;-54
2024/03/16 13:48:00;;;;;;;;;;;;;;;;;;4858830;29;19916;-53
2024/03/16 13:50:27;;;;;;;;;;;;;;;;;;4859119;29;19959;-52
2024/03/16 13:52:54;;;;;;;;;;;;;;;;;;4859212;29;20012;-52
2024/03/16 13:55:22;;;;;;;;;;;;;;;;;;4858067;29;20368;-54
2024/03/16 13:57:48;;;;;;;;;;;;;;;;;;4857969;29;20008;-52
2024/03/16 14:00:18;;;;;;;;;;;;;;;;;;4856678;29;19955;-50
2024/03/16 14:02:45;;;;;;;;;;;;;;;;;;4864704;29;19919;-50
2024/03/16 14:05:11;;;;;;;;;;;;;;;;;;4863755;29;20277;-51
2024/03/16 14:07:36;;;;;;;;;;;;;;;;;;4857228;29;19929;-53
2024/03/16 14:10:02;;;;;;;;;;;;;;;;;;4861148;29;20374;-51
2024/03/16 14:12:28;;;;;;;;;;;;;;;;;;4863929;29;19947;-51
2024/03/16 14:14:56;;;;;;;;;;;;;;;;;;4864684;29;19958;-53
2024/03/16 14:17:22;;;;;;;;;;;;;;;;;;4856186;29;20357;-51
2024/03/16 14:19:53;;;;;;;;;;;;;;;;;;4857807;29;19922;-51
2024/03/16 14:22:20;;;;;;;;;;;;;;;;;;4859192;29;19912;-52
2024/03/16 14:24:55;;;;;;;;;;;;;;;;;;4858312;29;20368;-51
2024/03/16 14:27:21;;;;;;;;;;;;;;;;;;4879247;29;19926;-51
2024/03/16 14:29:47;;;;;;;;;;;;;;;;;;4883072;29;19936;-51
2024/03/16 14:32:13;;;;;;;;;;;;;;;;;;4880730;29;20027;-52
2024/03/16 14:34:41;;;;;;;;;;;;;;;;;;4881018;29;20447;-51
2024/03/16 14:37:07;;;;;;;;;;;;;;;;;;4877855;29;19964;-51
2024/03/16 14:39:34;;;;;;;;;;;;;;;;;;4880122;29;19916;-50
2024/03/16 14:42:00;;;;;;;;;;;;;;;;;;4877354;29;19927;-52
2024/03/16 14:44:27;;;;;;;;;;;;;;;;;;4877856;29;19915;-51
2024/03/16 14:46:53;;;;;;;;;;;;;;;;;;4878063;29;19919;-50
2024/03/16 14:49:20;;;;;;;;;;;;;;;;;;4880777;29;19954;-58
2024/03/16 14:51:46;;;;;;;;;;;;;;;;;;4876468;29;20046;-57
2024/03/16 14:54:12;;;;;;;;;;;;;;;;;;4877903;29;19943;-57
2024/03/16 14:56:38;;;;;;;;;;;;;;;;;;4876361;29;19946;-57
2024/03/16 14:59:04;;;;;;;;;;;;;;;;;;4874977;29;20395;-57
2024/03/16 15:01:31;;;;;;;;;;;;;;;;;;4878139;29;19943;-57
2024/03/16 15:03:57;;;;;;;;;;;;;;;;;;4874449;29;19976;-57
2024/03/16 15:06:24;;;;;;;;;;;;;;;;;;4876203;29;19988;-57
2024/03/16 15:08:49;;;;;;;;;;;;;;;;;;4871977;29;19915;-52
2024/03/16 15:11:16;;;;;;;;;;;;;;;;;;4879599;29;20079;-54
2024/03/16 15:13:42;;;;;;;;;;;;;;;;;;4878091;29;19959;-51
2024/03/16 15:16:08;;;;;;;;;;;;;;;;;;4877001;29;20481;-51
2024/03/16 15:18:34;;;;;;;;;;;;;;;;;;4876496;29;20339;-52
2024/03/16 15:21:00;;;;;;;;;;;;;;;;;;4873608;29;20407;-51
2024/03/16 15:23:26;;;;;;;;;;;;;;;;;;4874470;29;19926;-51
2024/03/16 15:26:03;;;;;;;;;;;;;;;;;;4882423;29;20388;-51
2024/03/16 15:28:32;;;;;;;;;;;;;;;;;;4877038;29;20359;-51
2024/03/16 15:30:58;;;;;;;;;;;;;;;;;;4878445;29;20260;-50
2024/03/16 15:33:26;;;;;;;;;;;;;;;;;;4881353;29;20075;-54
2024/03/16 15:35:52;;;;;;;;;;;;;;;;;;4874422;29;19916;-50
2024/03/16 15:38:18;;;;;;;;;;;;;;;;;;4883872;29;19973;-50
2024/03/16 15:40:44;;;;;;;;;;;;;;;;;;4875970;29;20300;-52
2024/03/16 15:43:10;;;;;;;;;;;;;;;;;;4874012;29;19994;-52
2024/03/16 15:45:37;;;;;;;;;;;;;;;;;;4876367;29;20372;-53
2024/03/16 15:48:03;;;;;;;;;;;;;;;;;;4875499;29;19911;-51
2024/03/16 15:50:30;;;;;;;;;;;;;;;;;;4874726;29;20432;-51
2024/03/16 15:52:56;;;;;;;;;;;;;;;;;;4875886;29;19916;-52
2024/03/16 15:55:22;;;;;;;;;;;;;;;;;;4873049;29;19950;-54
2024/03/16 15:57:48;;;;;;;;;;;;;;;;;;4874377;29;20259;-53
2024/03/16 16:00:14;;;;;;;;;;;;;;;;;;4873424;29;20510;-51
2024/03/16 16:02:40;;;;;;;;;;;;;;;;;;4889437;29;19963;-53
2024/03/16 16:05:06;;;;;;;;;;;;;;;;;;4873525;29;19947;-51
2024/03/16 16:07:33;;;;;;;;;;;;;;;;;;4869622;29;19919;-53
2024/03/16 16:09:59;;;;;;;;;;;;;;;;;;4862055;29;20352;-52
2024/03/16 16:12:25;;;;;;;;;;;;;;;;;;4876140;29;19966;-50
2024/03/16 16:14:51;;;;;;;;;;;;;;;;;;4877035;29;20360;-51
2024/03/16 16:17:18;;;;;;;;;;;;;;;;;;4874986;29;19943;-52
2024/03/16 16:19:44;;;;;;;;;;;;;;;;;;4860735;29;20392;-56
2024/03/16 16:22:10;;;;;;;;;;;;;;;;;;4873309;29;19954;-59